Time;durP1;ratioP1;P1;durP2;ratioP2;P2;SDS_P1;SDS_P2;PMS_P1;PMS_P2;Temp;Humidity;BMP_temperature;BMP_pressure;BME280_temperature;BME280_humidity;BME280_pressure;Samples;Min_cycle;Max_cycle;Signal;HPM_P1;HPM_P2
2022/04/14 00:01:15;;;;;;;21.67;11.23;;;;;;;12.62;45.05;100983.34;5415818;32;34439;-76
2022/04/14 00:04:17;;;;;;;23.73;11.50;;;;;;;12.40;45.98;100978.03;5417659;32;37313;-77
2022/04/14 00:07:19;;;;;;;19.40;11.10;;;;;;;12.17;46.90;100976.22;5405684;32;35590;-77
2022/04/14 00:10:22;;;;;;;23.80;11.80;;;;;;;12.09;47.58;100978.28;5431559;32;44903;-76
2022/04/14 00:13:25;;;;;;;21.58;11.38;;;;;;;12.21;46.13;100972.59;5401977;32;35814;-80
2022/04/14 00:16:27;;;;;;;24.60;11.80;;;;;;;12.73;44.77;100970.62;5387307;32;34175;-80
2022/04/14 00:19:30;;;;;;;21.17;10.77;;;;;;;13.54;42.47;100967.38;5392816;32;35579;-81
2022/04/14 00:22:36;;;;;;;22.27;12.00;;;;;;;13.78;41.82;100970.75;5390100;32;34243;-79
2022/04/14 00:25:38;;;;;;;23.43;12.37;;;;;;;12.88;43.70;100966.53;5396231;32;35323;-77
2022/04/14 00:28:40;;;;;;;23.53;12.73;;;;;;;12.77;44.36;100971.38;5373861;32;34775;-80
2022/04/14 00:31:43;;;;;;;27.40;13.27;;;;;;;12.12;46.08;100967.66;5423326;32;34461;-81
2022/04/14 00:34:45;;;;;;;27.20;14.50;;;;;;;11.88;47.06;100969.37;5399933;32;34311;-76
2022/04/14 00:37:48;;;;;;;21.23;12.17;;;;;;;12.39;44.95;100976.31;5412272;32;34973;-77
2022/04/14 00:40:52;;;;;;;20.53;12.13;;;;;;;11.50;47.00;100978.56;5397238;32;33719;-80
2022/04/14 00:43:54;;;;;;;27.23;12.03;;;;;;;11.83;46.77;100966.91;5399192;32;44363;-76
2022/04/14 00:46:57;;;;;;;20.93;11.40;;;;;;;12.66;44.43;100964.72;5422409;32;35394;-77
2022/04/14 00:49:59;;;;;;;19.87;11.17;;;;;;;12.99;43.48;100961.69;5401308;32;34966;-81
2022/04/14 00:53:01;;;;;;;22.20;12.37;;;;;;;13.01;43.26;100966.00;5413627;32;34596;-77
2022/04/14 00:56:04;;;;;;;19.40;11.18;;;;;;;12.42;44.37;100970.94;5380332;32;34938;-76
2022/04/14 00:59:07;;;;;;;25.33;11.80;;;;;;;11.47;46.69;100969.00;5391869;32;34812;-80
2022/04/14 01:02:09;;;;;;;22.13;11.80;;;;;;;11.50;46.62;100957.50;5383660;32;34709;-75
2022/04/14 01:05:13;;;;;;;21.03;10.77;;;;;;;12.14;44.27;100953.50;5403780;32;35911;-77
2022/04/14 01:08:17;;;;;;;23.25;12.82;;;;;;;11.31;46.16;100958.13;5389507;32;36432;-81
2022/04/14 01:11:20;;;;;;;20.73;11.60;;;;;;;11.18;46.54;100963.84;5398110;32;35387;-81
2022/04/14 01:14:31;;;;;;;23.70;11.73;;;;;;;11.17;47.13;100968.25;5403068;32;46952;-80
2022/04/14 01:17:34;;;;;;;22.80;11.23;;;;;;;11.70;46.04;100959.47;5414182;32;35299;-83
2022/04/14 01:20:38;;;;;;;22.33;11.37;;;;;;;11.56;46.53;100967.84;5407492;32;34876;-76
2022/04/14 01:23:42;;;;;;;21.97;12.17;;;;;;;11.71;46.18;100959.41;5386217;32;35984;-76
2022/04/14 01:26:45;;;;;;;22.00;10.77;;;;;;;12.08;45.08;100952.88;5385162;32;35315;-81
2022/04/14 01:29:47;;;;;;;22.00;11.30;;;;;;;12.45;43.82;100949.75;5407383;32;36288;-77
2022/04/14 01:32:49;;;;;;;19.27;11.10;;;;;;;12.67;43.16;100949.75;5394722;32;35676;-81
2022/04/14 01:35:52;;;;;;;21.40;12.87;;;;;;;12.78;42.73;100947.56;5417002;32;45242;-81
2022/04/14 01:38:54;;;;;;;22.23;12.30;;;;;;;11.91;44.41;100956.97;5385505;32;34417;-81
2022/04/14 01:41:57;;;;;;;22.03;12.23;;;;;;;11.25;47.04;100958.31;5421382;32;34152;-81
2022/04/14 01:44:59;;;;;;;19.62;11.32;;;;;;;11.24;47.49;100961.88;5406632;32;34828;-75
2022/04/14 01:48:01;;;;;;;23.37;12.77;;;;;;;11.96;45.74;100955.94;5387222;32;34759;-76
2022/04/14 01:51:05;;;;;;;22.20;12.40;;;;;;;12.30;44.51;100955.56;5408093;32;35093;-76
2022/04/14 01:54:07;;;;;;;19.63;11.00;;;;;;;11.92;45.79;100963.97;5415167;32;35556;-77
2022/04/14 01:57:10;;;;;;;21.27;12.00;;;;;;;11.88;45.62;100962.34;5386423;32;34828;-81
2022/04/14 02:00:14;;;;;;;27.03;12.27;;;;;;;11.80;46.26;100967.00;5396536;32;36294;-82
2022/04/14 02:03:16;;;;;;;20.87;12.30;;;;;;;11.25;47.64;100962.72;5418210;32;35319;-79
2022/04/14 02:06:18;;;;;;;23.77;11.60;;;;;;;10.90;48.68;100962.09;5427608;32;34864;-76
2022/04/14 02:09:21;;;;;;;22.07;12.97;;;;;;;11.14;48.74;100965.69;5403668;32;34958;-77
2022/04/14 02:12:24;;;;;;;21.10;12.10;;;;;;;10.60;50.36;100969.13;5431240;32;45345;-76
2022/04/14 02:15:26;;;;;;;20.30;12.20;;;;;;;11.04;48.81;100966.91;5402195;32;34909;-78
2022/04/14 02:18:29;;;;;;;23.70;12.63;;;;;;;11.11;48.95;100968.44;5420679;32;34021;-76
2022/04/14 02:21:31;;;;;;;19.20;12.03;;;;;;;11.70;47.19;100960.31;5406453;32;34546;-81
2022/04/14 02:24:33;;;;;;;22.17;12.73;;;;;;;11.95;46.36;100959.50;5385710;32;33338;-79
2022/04/14 02:27:36;;;;;;;19.27;11.37;;;;;;;11.39;47.47;100971.88;5414182;32;36950;-76
2022/04/14 02:30:38;;;;;;;19.93;11.90;;;;;;;11.18;48.37;100961.22;5397057;32;33613;-76
2022/04/14 02:33:40;;;;;;;19.07;11.17;;;;;;;11.44;47.57;100952.44;5389211;32;35851;-76
2022/04/14 02:36:42;;;;;;;20.37;11.67;;;;;;;12.11;45.54;100950.13;5385976;32;34940;-82
2022/04/14 02:39:45;;;;;;;18.87;10.98;;;;;;;11.77;45.80;100964.44;5404946;32;35100;-82
2022/04/14 02:42:47;;;;;;;19.40;11.27;;;;;;;12.00;44.92;100962.84;5402824;32;35069;-80
2022/04/14 02:45:50;;;;;;;22.02;11.80;;;;;;;12.10;44.86;100958.94;5390495;32;36584;-76
2022/04/14 02:48:52;;;;;;;20.53;11.10;;;;;;;11.46;46.42;100966.41;5414747;32;44695;-81
2022/04/14 02:51:54;;;;;;;20.03;11.87;;;;;;;11.21;47.38;100971.66;5371720;32;35398;-77
2022/04/14 02:54:57;;;;;;;20.93;10.60;;;;;;;11.20;47.29;100968.13;5424000;32;35096;-76
2022/04/14 02:57:59;;;;;;;18.07;10.60;;;;;;;11.97;45.00;100957.66;5378959;32;35216;-77
2022/04/14 03:01:01;;;;;;;20.40;10.97;;;;;;;11.52;45.90;100956.53;5429987;32;34964;-82
2022/04/14 03:04:03;;;;;;;19.77;11.40;;;;;;;11.25;46.96;100958.31;5404087;32;35665;-78
2022/04/14 03:07:05;;;;;;;24.27;11.57;;;;;;;10.18;49.77;100958.94;5406838;32;34438;-81
2022/04/14 03:10:08;;;;;;;19.33;11.60;;;;;;;10.28;49.54;100963.06;5388520;32;34474;-81
2022/04/14 03:13:10;;;;;;;20.20;11.47;;;;;;;10.10;50.14;100968.78;5385725;32;35489;-77
2022/04/14 03:16:13;;;;;;;21.00;11.77;;;;;;;9.71;51.44;100966.34;5432039;32;35438;-83
2022/04/14 03:19:15;;;;;;;20.98;11.05;;;;;;;10.17;50.52;100965.09;5381692;32;35259;-77
2022/04/14 03:22:17;;;;;;;18.43;11.00;;;;;;;10.43;49.85;100966.13;5392220;32;34929;-76
2022/04/14 03:25:20;;;;;;;20.07;10.80;;;;;;;10.87;48.47;100969.19;5397586;32;34807;-82
2022/04/14 03:28:23;;;;;;;18.37;10.77;;;;;;;10.88;48.36;100973.53;5382077;32;43666;-76
2022/04/14 03:31:25;;;;;;;20.60;11.37;;;;;;;10.35;49.51;100963.75;5429210;32;34581;-80
2022/04/14 03:34:27;;;;;;;20.37;11.30;;;;;;;9.71;51.27;100968.97;5393264;32;35536;-78
2022/04/14 03:37:30;;;;;;;19.37;10.27;;;;;;;9.88;50.99;100962.41;5418452;32;34157;-76
2022/04/14 03:40:32;;;;;;;17.47;10.03;;;;;;;9.79;50.71;100974.03;5372434;32;35030;-80
2022/04/14 03:43:35;;;;;;;24.50;11.57;;;;;;;10.83;48.88;100968.47;5395173;32;34739;-77
2022/04/14 03:46:37;;;;;;;18.52;10.45;;;;;;;11.06;47.30;100972.97;5400788;32;35367;-81
2022/04/14 03:49:40;;;;;;;17.63;9.77;;;;;;;10.93;47.59;100976.91;5384518;32;34681;-81
2022/04/14 03:52:42;;;;;;;17.40;9.77;;;;;;;11.05;46.87;100976.53;5384818;32;34863;-81
2022/04/14 03:55:46;;;;;;;16.20;9.50;;;;;;;10.72;47.49;100981.06;5361204;32;34538;-76
2022/04/14 03:58:48;;;;;;;19.40;9.10;;;;;;;10.61;47.79;100978.75;5391412;32;36269;-76
2022/04/14 04:01:51;;;;;;;20.57;10.20;;;;;;;10.33;47.98;100981.31;5396752;32;35483;-82
2022/04/14 04:04:53;;;;;;;26.43;10.63;;;;;;;9.73;50.09;100996.06;5417181;32;43780;-82
2022/04/14 04:07:55;;;;;;;19.43;10.00;;;;;;;9.75;50.02;100996.87;5404240;32;35759;-81
2022/04/14 04:10:58;;;;;;;27.90;9.70;;;;;;;9.29;51.25;100998.94;5400743;32;34408;-81
2022/04/14 04:14:00;;;;;;;18.23;10.45;;;;;;;9.06;52.09;100999.47;5416309;32;35290;-76
2022/04/14 04:17:04;;;;;;;21.13;10.90;;;;;;;9.38;51.48;100988.19;5403977;32;33934;-77
2022/04/14 04:20:07;;;;;;;20.03;10.73;;;;;;;9.76;50.22;100980.22;5397427;32;34401;-77
2022/04/14 04:23:09;;;;;;;19.02;9.57;;;;;;;10.33;49.37;100989.22;5393707;32;35243;-76
2022/04/14 04:26:12;;;;;;;20.87;9.80;;;;;;;10.82;47.76;100987.78;5407823;32;34979;-80
2022/04/14 04:29:14;;;;;;;19.65;10.43;;;;;;;11.06;47.07;100996.66;5392834;32;35708;-76
2022/04/14 04:32:16;;;;;;;20.57;10.40;;;;;;;11.20;46.79;100996.22;5391375;32;35269;-77
2022/04/14 04:35:18;;;;;;;19.83;10.53;;;;;;;10.13;49.61;101002.87;5431104;32;35344;-76
2022/04/14 04:38:21;;;;;;;27.70;15.80;;;;;;;9.89;50.89;101001.75;5378495;32;35454;-82
2022/04/14 04:41:23;;;;;;;16.60;9.87;;;;;;;10.85;48.42;101001.66;5424155;32;44757;-77
2022/04/14 04:44:25;;;;;;;24.33;11.27;;;;;;;10.82;48.49;101001.78;5411625;32;37533;-81
2022/04/14 04:47:27;;;;;;;22.90;10.93;;;;;;;11.27;47.15;100998.63;5409413;32;35453;-81
2022/04/14 04:50:33;;;;;;;21.17;11.37;;;;;;;10.80;48.40;101007.97;5413363;32;33479;-81
2022/04/14 04:53:35;;;;;;;22.93;11.97;;;;;;;11.24;47.44;101008.38;5407032;32;34285;-80
2022/04/14 04:56:37;;;;;;;30.73;11.67;;;;;;;11.23;47.47;101011.91;5393548;32;34165;-81
2022/04/14 04:59:39;;;;;;;22.43;10.87;;;;;;;11.28;47.44;101005.59;5391478;32;35012;-82
2022/04/14 05:02:42;;;;;;;26.43;11.70;;;;;;;11.41;46.77;101010.47;5386608;32;34415;-80
2022/04/14 05:05:44;;;;;;;27.00;12.60;;;;;;;11.50;46.84;101011.00;5384188;32;35938;-81
2022/04/14 05:08:47;;;;;;;20.67;10.73;;;;;;;11.69;46.26;101015.66;5393848;32;36218;-81
2022/04/14 05:11:49;;;;;;;17.70;10.17;;;;;;;11.48;46.95;101026.00;5405771;32;35038;-77
2022/04/14 05:14:51;;;;;;;24.67;11.40;;;;;;;11.59;46.76;101020.37;5407588;32;45124;-77
2022/04/14 05:17:54;;;;;;;22.67;11.17;;;;;;;11.72;46.22;101018.19;5407416;32;34290;-77
2022/04/14 05:20:56;;;;;;;24.30;11.70;;;;;;;11.65;46.32;101009.63;5409567;32;34340;-81
2022/04/14 05:23:59;;;;;;;19.20;10.93;;;;;;;11.04;48.25;101016.91;5399053;32;34653;-77
2022/04/14 05:27:01;;;;;;;23.07;11.80;;;;;;;11.80;46.51;101021.44;5371656;32;35254;-77
2022/04/14 05:30:04;;;;;;;23.40;12.30;;;;;;;11.00;47.98;101025.78;5401087;32;34696;-78
2022/04/14 05:33:10;;;;;;;22.15;10.98;;;;;;;10.96;48.55;101026.78;5409698;32;36249;-77
2022/04/14 05:36:12;;;;;;;19.77;11.77;;;;;;;11.48;47.55;101035.69;5396841;32;35454;-80
2022/04/14 05:39:15;;;;;;;29.30;11.37;;;;;;;11.02;48.35;101038.00;5405016;32;34920;-81
2022/04/14 05:42:18;;;;;;;30.37;13.30;;;;;;;11.17;48.17;101034.00;5404425;32;35113;-78
2022/04/14 05:45:21;;;;;;;21.70;12.33;;;;;;;11.44;47.87;101034.91;5418634;32;35504;-76
2022/04/14 05:48:23;;;;;;;26.10;12.02;;;;;;;11.51;47.82;101038.19;5405530;32;45897;-74
2022/04/14 05:51:25;;;;;;;21.13;12.93;;;;;;;12.12;46.36;101042.31;5396248;32;34227;-76
2022/04/14 05:54:27;;;;;;;19.47;11.53;;;;;;;13.35;43.34;101029.81;5403680;32;34555;-80
2022/04/14 05:57:30;;;;;;;21.10;10.93;;;;;;;15.09;39.37;101028.28;5371761;32;34995;-80
2022/04/14 06:00:33;;;;;;;29.92;12.70;;;;;;;16.16;37.21;101036.22;5409884;32;33843;-80
2022/04/14 06:03:35;;;;;;;26.33;12.50;;;;;;;16.69;35.59;101019.25;5387058;32;34564;-78
2022/04/14 06:06:38;;;;;;;17.15;11.77;;;;;;;16.84;35.04;101030.00;5404838;32;34883;-76
2022/04/14 06:09:40;;;;;;;23.35;11.57;;;;;;;16.89;34.13;101028.81;5396422;32;34485;-76
2022/04/14 06:12:42;;;;;;;27.85;12.77;;;;;;;16.84;34.94;101022.03;5393045;32;37434;-73
2022/04/14 06:15:45;;;;;;;27.37;13.02;;;;;;;18.37;32.06;101020.16;5424109;32;35006;-75
2022/04/14 06:18:47;;;;;;;21.95;13.10;;;;;;;16.08;35.81;101027.81;5408531;32;35280;-69
2022/04/14 06:21:49;;;;;;;23.60;12.63;;;;;;;16.73;34.54;101027.94;5423795;32;34150;-71
2022/04/14 06:24:51;;;;;;;23.65;13.40;;;;;;;17.30;33.48;101026.47;5390437;32;43537;-70
2022/04/14 06:27:57;;;;;;;21.15;12.07;;;;;;;18.37;31.89;101017.50;5412610;32;34580;-83
2022/04/14 06:30:59;;;;;;;28.17;13.57;;;;;;;20.93;27.25;101014.66;5397323;32;34819;-69
2022/04/14 06:34:05;;;;;;;26.00;12.80;;;;;;;20.10;28.19;101021.41;5407685;32;34162;-67
2022/04/14 06:37:07;;;;;;;25.27;13.43;;;;;;;17.57;32.93;101023.19;5418751;32;34726;-85
2022/04/14 06:40:11;;;;;;;20.23;12.90;;;;;;;18.39;31.45;101023.59;5394543;32;34917;-74
2022/04/14 06:43:33;;;;;;;18.92;12.52;;;;;;;18.06;31.46;101022.97;5410690;32;34584;-66
2022/04/14 06:46:35;;;;;;;24.48;13.32;;;;;;;18.94;29.25;101011.31;5380702;32;34258;-66
2022/04/14 06:49:37;;;;;;;19.70;11.98;;;;;;;19.74;28.30;101010.47;5385137;32;34904;-67
2022/04/14 06:52:40;;;;;;;22.02;12.73;;;;;;;18.66;29.89;101010.37;5412036;32;34556;-82
2022/04/14 06:55:45;;;;;;;25.08;11.95;;;;;;;19.67;28.68;101011.00;5381582;32;34884;-67
2022/04/14 06:58:47;;;;;;;26.23;12.63;;;;;;;19.97;27.53;101013.41;5385723;32;34645;-82
2022/04/14 07:01:49;;;;;;;23.35;13.15;;;;;;;19.60;28.15;101002.56;5396251;32;35894;-67
2022/04/14 07:04:52;;;;;;;26.50;12.65;;;;;;;19.57;27.72;101009.84;5422542;32;46786;-76
2022/04/14 07:07:55;;;;;;;19.37;10.73;;;;;;;20.74;26.15;101014.25;5381162;32;35693;-70
2022/04/14 07:10:59;;;;;;;19.35;10.98;;;;;;;20.73;25.22;101004.50;5405377;32;34514;-88
2022/04/14 07:14:01;;;;;;;17.40;9.95;;;;;;;22.67;22.25;100997.84;5403160;32;34170;-74
2022/04/14 07:17:04;;;;;;;17.30;10.65;;;;;;;21.55;22.96;101009.16;5381004;32;37388;-69
2022/04/14 07:20:09;;;;;;;16.27;10.20;;;;;;;21.87;23.10;101003.19;5414817;32;36057;-69
2022/04/14 07:23:12;;;;;;;18.55;12.02;;;;;;;24.21;20.28;101003.72;5391637;32;35228;-76
2022/04/14 07:26:14;;;;;;;;;;;;;;;23.19;21.27;100993.63;5413792;32;33990;-70
2022/04/14 07:29:17;;;;;;;15.25;10.02;;;;;;;22.42;22.33;100998.94;5411175;32;34402;-73
2022/04/14 07:32:19;;;;;;;17.00;10.07;;;;;;;24.95;19.19;100987.38;5387769;32;34431;-70
2022/04/14 07:35:22;;;;;;;14.45;8.48;;;;;;;23.87;20.21;100997.75;5420334;32;45183;-65
2022/04/14 07:38:24;;;;;;;15.80;9.55;;;;;;;26.45;16.70;100995.81;5407929;32;34153;-76
2022/04/14 07:41:27;;;;;;;23.42;9.27;;;;;;;23.96;19.17;100994.28;5416057;32;33919;-83
2022/04/14 07:44:29;;;;;;;14.50;9.10;;;;;;;22.66;19.50;100993.44;5409957;32;34097;-65
2022/04/14 07:47:32;;;;;;;15.90;9.07;;;;;;;22.26;20.45;101004.62;5413028;32;34464;-63
2022/04/14 07:50:34;;;;;;;18.05;8.77;;;;;;;25.37;17.30;100990.75;5414766;32;34628;-64
2022/04/14 07:53:39;;;;;;;14.18;8.55;;;;;;;24.25;17.83;100997.13;5392379;32;34224;-64
2022/04/14 07:56:42;;;;;;;18.48;11.57;;;;;;;26.62;14.92;100994.22;5398166;32;35535;-67
2022/04/14 07:59:44;;;;;;;13.88;8.52;;;;;;;24.30;16.79;101002.94;5391982;32;33978;-76
2022/04/14 08:02:53;;;;;;;;;;;;;;;26.51;15.34;100990.84;5407488;32;36489;-66
2022/04/14 08:05:56;;;;;;;15.13;8.88;;;;;;;22.90;19.20;101004.03;5410076;32;44578;-70
2022/04/14 08:09:06;;;;;;;18.92;8.13;;;;;;;23.48;18.24;100999.25;5407816;32;38452;-77
2022/04/14 08:12:09;;;;;;;11.82;6.28;;;;;;;24.45;16.75;100994.56;5416837;32;35571;-71
2022/04/14 08:15:12;;;;;;;16.20;7.22;;;;;;;25.44;14.39;100990.13;5413038;32;35306;-68
2022/04/14 08:18:14;;;;;;;11.60;6.12;;;;;;;23.04;17.27;100994.88;5415777;32;35338;-68
2022/04/14 08:21:16;;;;;;;;;;;;;;;25.03;15.00;100990.22;5399708;32;34626;-67
2022/04/14 08:24:19;;;;;;;10.53;5.50;;;;;;;25.11;14.47;101003.00;5416013;32;34499;-71
2022/04/14 08:27:21;;;;;;;10.88;5.35;;;;;;;25.18;14.13;101000.59;5405382;32;44510;-72
2022/04/14 08:30:23;;;;;;;;;;;;;;;27.20;12.42;100985.81;5412292;32;34288;-72
2022/04/14 08:33:26;;;;;;;;;;;;;;;27.60;11.82;100987.19;5409082;32;35531;-70
2022/04/14 08:36:28;;;;;;;10.20;4.90;;;;;;;27.63;11.97;100992.28;5401165;32;36145;-71
2022/04/14 08:39:32;;;;;;;13.70;4.93;;;;;;;28.13;11.24;100980.84;5407382;32;34009;-67
2022/04/14 08:42:43;;;;;;;9.15;4.10;;;;;;;26.92;11.71;100976.88;5407524;32;34168;-67
2022/04/14 08:45:50;;;;;;;10.88;4.37;;;;;;;26.17;11.82;100980.59;5397895;32;35913;-83
2022/04/14 08:48:52;;;;;;;10.32;4.55;;;;;;;26.63;11.41;100982.41;5394999;32;44191;-73
2022/04/14 08:51:56;;;;;;;6.80;3.30;;;;;;;24.62;12.81;100988.56;5400764;32;35360;-70
2022/04/14 08:54:59;;;;;;;8.10;3.85;;;;;;;27.17;10.45;100985.25;5404838;32;35195;-76
2022/04/14 08:58:03;;;;;;;7.87;3.90;;;;;;;26.35;11.18;100978.84;5363654;32;35284;-69
2022/04/14 09:01:06;;;;;;;8.13;4.15;;;;;;;25.07;12.44;100991.69;5403249;32;34820;-78
2022/04/14 09:04:26;;;;;;;8.70;4.43;;;;;;;27.48;10.75;100985.72;5388191;32;42879;-73
2022/04/14 09:07:28;;;;;;;;;;;;;;;26.57;11.56;100979.47;5403760;32;34429;-71
2022/04/14 09:10:30;;;;;;;10.20;3.97;;;;;;;27.72;10.85;100974.31;5395341;32;35469;-80
2022/04/14 09:13:32;;;;;;;6.68;3.37;;;;;;;27.32;11.00;100972.94;5385020;32;34973;-80
2022/04/14 09:16:35;;;;;;;8.65;3.70;;;;;;;24.93;12.41;100978.59;5398850;32;34760;-67
2022/04/14 09:19:38;;;;;;;6.62;3.40;;;;;;;25.61;11.73;100978.66;5405115;32;34284;-80
2022/04/14 09:22:40;;;;;;;7.18;2.78;;;;;;;27.81;10.07;100973.34;5408724;32;34622;-67
2022/04/14 09:25:43;;;;;;;6.40;3.17;;;;;;;27.92;9.80;100964.16;5388567;32;34235;-66
2022/04/14 09:29:03;;;;;;;6.45;3.00;;;;;;;25.76;11.01;100982.69;5407129;32;34489;-67
2022/04/14 09:32:05;;;;;;;7.97;3.30;;;;;;;28.38;9.27;100964.78;5418855;32;35393;-81
2022/04/14 09:35:19;;;;;;;8.93;3.30;;;;;;;25.77;10.89;100978.97;5382205;32;34083;-66
2022/04/14 09:38:21;;;;;;;8.30;3.47;;;;;;;27.89;9.85;100964.50;5419602;32;45079;-79
2022/04/14 09:41:44;;;;;;;;;;;;;;;27.41;9.56;100965.75;5396067;32;32153;-81
2022/04/14 09:44:46;;;;;;;7.25;3.72;;;;;;;26.10;10.78;100963.31;5400154;32;35146;-73
2022/04/14 09:47:50;;;;;;;9.82;3.58;;;;;;;26.00;10.99;100955.25;5423214;32;35191;-72
2022/04/14 09:50:52;;;;;;;6.62;3.28;;;;;;;26.90;10.19;100957.28;5382410;32;45238;-73
2022/04/14 09:54:04;;;;;;;;;;;;;;;25.35;11.50;100965.78;5415840;32;34424;-71
2022/04/14 09:57:10;;;;;;;6.30;2.73;;;;;;;27.26;10.18;100954.66;5383958;32;34319;-77
2022/04/14 10:00:13;;;;;;;6.93;3.12;;;;;;;25.46;11.12;100954.03;5396815;32;34147;-84
2022/04/14 10:03:24;;;;;;;6.90;3.45;;;;;;;25.68;10.53;100955.56;5412837;32;37860;-74
2022/04/14 10:06:27;;;;;;;6.60;3.67;;;;;;;24.66;11.94;100954.19;5399701;32;46646;-68
2022/04/14 10:09:34;;;;;;;6.68;3.90;;;;;;;24.99;11.97;100951.16;5416604;32;35375;-68
2022/04/14 10:12:37;;;;;;;5.32;2.80;;;;;;;24.79;12.32;100939.50;5406446;32;34835;-76
2022/04/14 10:15:40;;;;;;;10.05;3.40;;;;;;;28.25;9.65;100933.62;5413257;32;34892;-75
2022/04/14 10:18:43;;;;;;;8.93;3.28;;;;;;;29.08;8.95;100924.81;5409201;32;34197;-66
2022/04/14 10:21:45;;;;;;;8.23;3.10;;;;;;;25.46;11.42;100942.44;5395506;32;34964;-80
2022/04/14 10:24:47;;;;;;;6.40;3.20;;;;;;;26.60;10.72;100931.50;5418010;32;34884;-72
2022/04/14 10:27:53;;;;;;;8.60;5.65;;;;;;;29.09;9.21;100919.22;5406570;32;33694;-70
2022/04/14 10:30:55;;;;;;;6.75;3.25;;;;;;;27.56;10.00;100914.75;5420630;32;45950;-69
2022/04/14 10:34:03;;;;;;;6.30;3.10;;;;;;;28.88;9.61;100913.41;5411155;32;34666;-66
2022/04/14 10:37:08;;;;;;;7.07;3.65;;;;;;;28.86;9.44;100912.75;5403945;32;35343;-66
2022/04/14 10:40:10;;;;;;;8.52;3.60;;;;;;;32.02;7.64;100914.34;5420884;32;35385;-67
2022/04/14 10:43:14;;;;;;;9.68;4.10;;;;;;;27.33;10.17;100914.41;5391970;32;34784;-67
2022/04/14 10:46:17;;;;;;;7.57;3.80;;;;;;;30.07;8.71;100893.94;5422268;32;37015;-69
2022/04/14 10:49:24;;;;;;;11.25;3.85;;;;;;;28.57;9.80;100905.91;5394292;32;34795;-68
2022/04/14 10:52:27;;;;;;;7.82;3.30;;;;;;;30.82;8.66;100905.16;5423735;32;44833;-67
2022/04/14 10:55:40;;;;;;;6.10;3.78;;;;;;;27.13;10.72;100905.63;5384857;32;35054;-67
2022/04/14 10:58:52;;;;;;;11.00;3.42;;;;;;;27.13;10.62;100897.53;5399495;32;33325;-69
2022/04/14 11:01:58;;;;;;;6.20;3.30;;;;;;;30.29;8.58;100889.66;5414192;32;47017;-70
2022/04/14 11:05:01;;;;;;;7.18;3.40;;;;;;;32.21;7.42;100880.31;5409501;32;34248;-67
2022/04/14 11:08:27;;;;;;;9.00;3.28;;;;;;;29.71;8.79;100898.94;5417762;32;35742;-70
2022/04/14 11:11:29;;;;;;;7.40;3.53;;;;;;;26.82;10.70;100897.03;5403314;32;45618;-69
2022/04/14 11:14:34;;;;;;;;;;;;;;;28.06;9.93;100901.44;5415067;32;35092;-69
2022/04/14 11:17:48;;;;;;;7.82;3.83;;;;;;;27.72;10.09;100896.84;5425239;32;35089;-66
2022/04/14 11:20:52;;;;;;;8.10;3.50;;;;;;;29.08;9.38;100893.19;5399608;32;46313;-69
2022/04/14 11:23:54;;;;;;;9.20;3.85;;;;;;;29.49;8.88;100895.88;5396641;32;44223;-68
2022/04/14 11:27:09;;;;;;;8.60;3.87;;;;;;;27.76;10.27;100890.13;5410438;32;34218;-67
2022/04/14 11:30:38;;;;;;;6.28;3.53;;;;;;;30.20;8.86;100870.69;5419066;32;35614;-67
2022/04/14 11:33:45;;;;;;;7.18;3.20;;;;;;;32.11;7.62;100862.59;5431168;32;35045;-67
2022/04/14 11:36:50;;;;;;;9.27;3.83;;;;;;;34.33;6.54;100860.44;5410729;32;34550;-67
2022/04/14 11:40:25;;;;;;;7.60;3.42;;;;;;;32.78;7.51;100865.09;5412082;32;44541;-67
2022/04/14 11:43:28;;;;;;;7.03;3.50;;;;;;;35.13;5.92;100857.94;5375886;32;45882;-68
2022/04/14 11:46:52;;;;;;;10.15;3.40;;;;;;;33.48;6.52;100858.88;5411836;32;35354;-67
2022/04/14 11:49:54;;;;;;;5.85;3.40;;;;;;;31.29;8.08;100852.56;5406855;32;44629;-69
2022/04/14 11:52:57;;;;;;;7.00;3.60;;;;;;;32.33;7.46;100851.63;5413638;32;34190;-69
2022/04/14 11:55:59;;;;;;;9.60;4.07;;;;;;;32.42;7.53;100846.06;5413225;32;35506;-67
2022/04/14 11:59:07;;;;;;;9.48;3.62;;;;;;;30.61;8.50;100843.37;5403242;32;35682;-67
2022/04/14 12:02:18;;;;;;;13.20;6.57;;;;;;;30.79;8.11;100840.41;5400930;32;35163;-67
2022/04/14 12:05:22;;;;;;;;;;;;;;;31.38;8.12;100831.62;5424525;32;44676;-70
2022/04/14 12:08:24;;;;;;;5.85;2.80;;;;;;;36.14;5.37;100822.06;5390863;32;46059;-68
2022/04/14 12:11:29;;;;;;;5.25;3.10;;;;;;;34.06;6.09;100823.16;5407087;32;34687;-69
2022/04/14 12:14:31;;;;;;;6.07;3.10;;;;;;;30.18;8.41;100829.38;5399374;32;35079;-68
2022/04/14 12:17:35;;;;;;;6.32;2.80;;;;;;;33.19;6.42;100827.19;5417973;32;34714;-68
2022/04/14 12:20:43;;;;;;;5.90;2.70;;;;;;;33.25;6.57;100817.41;5401235;32;35241;-69
2022/04/14 12:23:50;;;;;;;5.47;2.90;;;;;;;36.32;5.10;100805.72;5403229;32;36687;-67
2022/04/14 12:26:52;;;;;;;7.10;2.83;;;;;;;34.06;6.42;100794.00;5408583;32;46621;-69
2022/04/14 12:29:56;;;;;;;7.15;3.50;;;;;;;34.96;5.83;100790.06;5411575;32;34385;-67
2022/04/14 12:33:06;;;;;;;6.20;2.78;;;;;;;32.92;6.19;100800.78;5414438;32;34316;-67
2022/04/14 12:36:09;;;;;;;10.80;2.92;;;;;;;31.98;6.60;100782.56;5401039;32;34529;-67
2022/04/14 12:39:20;;;;;;;6.32;2.97;;;;;;;33.53;6.20;100776.53;5415708;32;35198;-69
2022/04/14 12:42:31;;;;;;;4.57;3.00;;;;;;;35.42;5.13;100772.81;5413443;32;45574;-67
2022/04/14 12:45:40;;;;;;;6.60;3.30;;;;;;;29.82;8.17;100782.94;5409919;32;34779;-68
2022/04/14 12:48:42;;;;;;;5.50;3.10;;;;;;;30.46;7.68;100772.81;5421483;32;34972;-66
2022/04/14 12:51:51;;;;;;;4.65;3.17;;;;;;;33.81;5.74;100769.13;5404010;32;34754;-69
2022/04/14 12:54:55;;;;;;;8.77;2.97;;;;;;;30.83;7.17;100773.03;5421748;32;44714;-67
2022/04/14 12:58:10;;;;;;;3.95;2.60;;;;;;;30.41;7.29;100760.81;5388787;32;35146;-66
2022/04/14 13:01:12;;;;;;;6.80;2.72;;;;;;;32.96;5.92;100753.06;5383668;32;34143;-67
2022/04/14 13:04:15;;;;;;;4.90;2.80;;;;;;;29.67;7.47;100763.84;5423227;32;34988;-66
2022/04/14 13:07:17;;;;;;;8.27;3.45;;;;;;;27.25;9.12;100755.97;5399097;32;36287;-69
2022/04/14 13:10:34;;;;;;;6.32;2.95;;;;;;;25.26;11.03;100759.50;5423504;32;35450;-67
2022/04/14 13:13:37;;;;;;;4.18;2.50;;;;;;;26.45;9.84;100757.81;5416442;32;35204;-67
2022/04/14 13:16:39;;;;;;;4.18;2.35;;;;;;;25.61;10.10;100749.91;5396511;32;35485;-66
2022/04/14 13:19:41;;;;;;;7.78;2.87;;;;;;;24.50;11.10;100755.87;5425323;32;34370;-70
2022/04/14 13:22:49;;;;;;;6.10;2.40;;;;;;;23.94;11.26;100748.41;5396421;32;36226;-67
2022/04/14 13:25:51;;;;;;;7.72;2.78;;;;;;;23.63;11.55;100753.81;5397549;32;44597;-68
2022/04/14 13:28:53;;;;;;;;;;;;;;;23.64;11.51;100734.06;5408698;32;35544;-69
2022/04/14 13:31:55;;;;;;;5.87;2.50;;;;;;;24.04;10.81;100738.56;5411021;32;34962;-66
2022/04/14 13:34:58;;;;;;;3.95;2.20;;;;;;;23.85;10.66;100736.66;5377818;32;34945;-68
2022/04/14 13:38:00;;;;;;;4.07;2.50;;;;;;;23.49;11.11;100736.22;5395307;32;34547;-68
2022/04/14 13:41:03;;;;;;;5.28;2.58;;;;;;;24.56;10.50;100728.44;5425784;32;35130;-67
2022/04/14 13:44:05;;;;;;;5.93;2.67;;;;;;;23.48;11.28;100726.47;5408322;32;35182;-69
2022/04/14 13:47:12;;;;;;;4.97;2.60;;;;;;;24.91;10.50;100716.25;5412097;32;36134;-67
2022/04/14 13:50:15;;;;;;;7.15;3.33;;;;;;;23.96;11.50;100728.50;5405219;32;34133;-69
2022/04/14 13:53:17;;;;;;;;;;;;;;;24.54;11.09;100728.59;5403287;32;34591;-67
2022/04/14 13:56:19;;;;;;;6.68;3.10;;;;;;;24.47;10.98;100716.72;5408066;32;35100;-66
2022/04/14 13:59:21;;;;;;;9.07;2.70;;;;;;;23.83;11.76;100718.97;5398095;32;45822;-69
2022/04/14 14:02:24;;;;;;;7.32;2.90;;;;;;;23.55;11.86;100715.19;5416225;32;34831;-68
2022/04/14 14:05:28;;;;;;;5.77;2.97;;;;;;;23.98;11.80;100714.94;5397976;32;35060;-69
2022/04/14 14:08:33;;;;;;;5.35;2.60;;;;;;;24.06;11.81;100720.47;5421649;32;34456;-70
2022/04/14 14:11:36;;;;;;;5.32;2.60;;;;;;;23.89;11.93;100713.91;5403312;32;34771;-68